sensor_id;sensor_type;location;lat;lon;timestamp;pressure;altitude;pressure_sealevel;temperature;humidity
36454;BME280;22478;51.740;-1.314;2023-05-07T00:00:44;100070.73;;;11.55;100.00
36454;BME280;22478;51.740;-1.314;2023-05-07T00:03:11;100069.79;;;11.56;100.00
36454;BME280;22478;51.740;-1.314;2023-05-07T00:05:39;100070.50;;;12.09;100.00
36454;BME280;22478;51.740;-1.314;2023-05-07T00:08:06;100072.19;;;11.89;100.00
36454;BME280;22478;51.740;-1.314;2023-05-07T00:10:33;100077.99;;;10.17;100.00
36454;BME280;22478;51.740;-1.314;2023-05-07T00:13:00;100068.44;;;11.79;100.00
36454;BME280;22478;51.740;-1.314;2023-05-07T00:15:27;100073.08;;;10.42;100.00
36454;BME280;22478;51.740;-1.314;2023-05-07T00:17:55;100074.93;;;10.60;100.00
36454;BME280;22478;51.740;-1.314;2023-05-07T00:20:23;100073.96;;;11.21;100.00
36454;BME280;22478;51.740;-1.314;2023-05-07T00:22:50;100064.77;;;11.96;100.00
36454;BME280;22478;51.740;-1.314;2023-05-07T00:25:19;100062.85;;;12.74;100.00
36454;BME280;22478;51.740;-1.314;2023-05-07T00:27:46;100073.25;;;9.99;100.00
36454;BME280;22478;51.740;-1.314;2023-05-07T00:30:14;100074.58;;;10.38;100.00
36454;BME280;22478;51.740;-1.314;2023-05-07T00:32:41;100074.38;;;10.20;100.00
36454;BME280;22478;51.740;-1.314;2023-05-07T00:35:09;100074.34;;;12.31;100.00
36454;BME280;22478;51.740;-1.314;2023-05-07T00:37:36;100076.75;;;10.96;100.00
36454;BME280;22478;51.740;-1.314;2023-05-07T00:40:05;100073.09;;;10.77;100.00
36454;BME280;22478;51.740;-1.314;2023-05-07T00:42:32;100081.86;;;8.96;100.00
36454;BME280;22478;51.740;-1.314;2023-05-07T00:44:59;100080.31;;;8.41;100.00
36454;BME280;22478;51.740;-1.314;2023-05-07T00:47:26;100076.25;;;10.99;100.00
36454;BME280;22478;51.740;-1.314;2023-05-07T00:49:54;100071.83;;;12.12;100.00
36454;BME280;22478;51.740;-1.314;2023-05-07T00:52:24;100069.67;;;11.65;100.00
36454;BME280;22478;51.740;-1.314;2023-05-07T00:54:52;100063.15;;;12.29;100.00
36454;BME280;22478;51.740;-1.314;2023-05-07T00:57:21;100073.31;;;11.32;100.00
36454;BME280;22478;51.740;-1.314;2023-05-07T00:59:49;100076.44;;;10.70;100.00
36454;BME280;22478;51.740;-1.314;2023-05-07T01:02:17;100075.32;;;11.18;100.00
36454;BME280;22478;51.740;-1.314;2023-05-07T01:04:44;100077.40;;;10.86;100.00
36454;BME280;22478;51.740;-1.314;2023-05-07T01:07:11;100084.20;;;9.89;100.00
36454;BME280;22478;51.740;-1.314;2023-05-07T01:09:39;100087.86;;;9.12;100.00
36454;BME280;22478;51.740;-1.314;2023-05-07T01:12:07;100085.30;;;9.36;100.00
36454;BME280;22478;51.740;-1.314;2023-05-07T01:14:36;100083.90;;;11.17;100.00
36454;BME280;22478;51.740;-1.314;2023-05-07T01:17:03;100082.32;;;10.05;100.00
36454;BME280;22478;51.740;-1.314;2023-05-07T01:19:30;100078.08;;;9.42;100.00
36454;BME280;22478;51.740;-1.314;2023-05-07T01:22:09;100077.35;;;11.08;100.00
36454;BME280;22478;51.740;-1.314;2023-05-07T01:24:36;100079.11;;;10.64;100.00
36454;BME280;22478;51.740;-1.314;2023-05-07T01:27:04;100085.50;;;9.83;100.00
36454;BME280;22478;51.740;-1.314;2023-05-07T01:29:31;100084.69;;;10.38;100.00
36454;BME280;22478;51.740;-1.314;2023-05-07T01:32:00;100085.34;;;10.45;100.00
36454;BME280;22478;51.740;-1.314;2023-05-07T01:34:30;100089.95;;;10.35;100.00
36454;BME280;22478;51.740;-1.314;2023-05-07T01:36:59;100094.02;;;11.88;100.00
36454;BME280;22478;51.740;-1.314;2023-05-07T01:39:28;100096.45;;;10.54;100.00
36454;BME280;22478;51.740;-1.314;2023-05-07T01:41:56;100092.53;;;12.55;100.00
36454;BME280;22478;51.740;-1.314;2023-05-07T01:44:23;100097.84;;;8.94;100.00
36454;BME280;22478;51.740;-1.314;2023-05-07T01:46:51;100101.61;;;10.19;100.00
36454;BME280;22478;51.740;-1.314;2023-05-07T01:49:19;100099.49;;;10.33;100.00
36454;BME280;22478;51.740;-1.314;2023-05-07T01:51:46;100103.20;;;10.86;100.00
36454;BME280;22478;51.740;-1.314;2023-05-07T01:54:14;100104.55;;;9.92;100.00
36454;BME280;22478;51.740;-1.314;2023-05-07T01:56:41;100102.43;;;11.77;100.00
36454;BME280;22478;51.740;-1.314;2023-05-07T01:59:09;100106.78;;;11.02;100.00
36454;BME280;22478;51.740;-1.314;2023-05-07T02:01:36;100105.97;;;11.35;100.00
36454;BME280;22478;51.740;-1.314;2023-05-07T02:04:03;100103.01;;;10.65;100.00
36454;BME280;22478;51.740;-1.314;2023-05-07T02:06:31;100105.25;;;11.58;100.00
36454;BME280;22478;51.740;-1.314;2023-05-07T02:08:58;100102.58;;;11.74;100.00
36454;BME280;22478;51.740;-1.314;2023-05-07T02:11:26;100106.76;;;10.74;100.00
36454;BME280;22478;51.740;-1.314;2023-05-07T02:13:53;100113.83;;;11.17;100.00
36454;BME280;22478;51.740;-1.314;2023-05-07T02:16:21;100117.49;;;9.27;100.00
36454;BME280;22478;51.740;-1.314;2023-05-07T02:18:48;100121.39;;;11.02;100.00
36454;BME280;22478;51.740;-1.314;2023-05-07T02:21:15;100123.40;;;9.44;100.00
36454;BME280;22478;51.740;-1.314;2023-05-07T02:23:42;100121.10;;;9.82;100.00
36454;BME280;22478;51.740;-1.314;2023-05-07T02:26:10;100119.22;;;10.27;100.00
36454;BME280;22478;51.740;-1.314;2023-05-07T02:28:37;100115.04;;;10.81;100.00
36454;BME280;22478;51.740;-1.314;2023-05-07T02:31:05;100119.87;;;11.67;100.00
36454;BME280;22478;51.740;-1.314;2023-05-07T02:33:33;100121.17;;;11.55;100.00
36454;BME280;22478;51.740;-1.314;2023-05-07T02:36:06;100125.10;;;11.26;100.00
36454;BME280;22478;51.740;-1.314;2023-05-07T02:38:33;100131.90;;;11.55;100.00
36454;BME280;22478;51.740;-1.314;2023-05-07T02:41:00;100138.35;;;11.26;100.00
36454;BME280;22478;51.740;-1.314;2023-05-07T02:43:28;100137.83;;;11.61;100.00
36454;BME280;22478;51.740;-1.314;2023-05-07T02:46:04;100141.47;;;10.46;100.00
36454;BME280;22478;51.740;-1.314;2023-05-07T02:48:31;100141.12;;;12.35;100.00
36454;BME280;22478;51.740;-1.314;2023-05-07T02:50:59;100139.05;;;11.54;100.00
36454;BME280;22478;51.740;-1.314;2023-05-07T02:53:27;100145.56;;;10.22;100.00
36454;BME280;22478;51.740;-1.314;2023-05-07T02:55:56;100148.88;;;10.69;100.00
36454;BME280;22478;51.740;-1.314;2023-05-07T02:58:24;100147.03;;;12.27;100.00
36454;BME280;22478;51.740;-1.314;2023-05-07T03:00:51;100154.52;;;12.16;100.00
36454;BME280;22478;51.740;-1.314;2023-05-07T03:03:19;100156.31;;;10.07;100.00
36454;BME280;22478;51.740;-1.314;2023-05-07T03:05:46;100157.98;;;11.38;100.00
36454;BME280;22478;51.740;-1.314;2023-05-07T03:08:14;100153.02;;;11.70;100.00
36454;BME280;22478;51.740;-1.314;2023-05-07T03:10:41;100153.95;;;10.91;100.00
36454;BME280;22478;51.740;-1.314;2023-05-07T03:13:08;100152.63;;;11.54;100.00
36454;BME280;22478;51.740;-1.314;2023-05-07T03:15:35;100153.08;;;12.21;100.00
36454;BME280;22478;51.740;-1.314;2023-05-07T03:18:02;100156.03;;;11.80;100.00
36454;BME280;22478;51.740;-1.314;2023-05-07T03:20:30;100154.75;;;10.90;100.00
36454;BME280;22478;51.740;-1.314;2023-05-07T03:22:57;100157.07;;;11.20;100.00
36454;BME280;22478;51.740;-1.314;2023-05-07T03:25:24;100156.35;;;9.59;100.00
36454;BME280;22478;51.740;-1.314;2023-05-07T03:27:51;100157.17;;;10.29;100.00
36454;BME280;22478;51.740;-1.314;2023-05-07T03:30:18;100161.93;;;11.26;100.00
36454;BME280;22478;51.740;-1.314;2023-05-07T03:32:45;100166.97;;;10.92;100.00
36454;BME280;22478;51.740;-1.314;2023-05-07T03:35:12;100172.87;;;11.42;100.00
36454;BME280;22478;51.740;-1.314;2023-05-07T03:37:40;100174.55;;;11.40;100.00
36454;BME280;22478;51.740;-1.314;2023-05-07T03:40:08;100180.40;;;8.69;100.00
36454;BME280;22478;51.740;-1.314;2023-05-07T03:42:35;100181.54;;;9.64;100.00
36454;BME280;22478;51.740;-1.314;2023-05-07T03:45:03;100186.58;;;9.16;100.00
36454;BME280;22478;51.740;-1.314;2023-05-07T03:47:30;100185.53;;;9.91;100.00
36454;BME280;22478;51.740;-1.314;2023-05-07T03:49:57;100186.83;;;10.23;100.00
36454;BME280;22478;51.740;-1.314;2023-05-07T03:52:24;100190.00;;;8.35;100.00
36454;BME280;22478;51.740;-1.314;2023-05-07T03:54:52;100189.87;;;9.24;100.00
36454;BME280;22478;51.740;-1.314;2023-05-07T03:57:19;100186.99;;;9.54;100.00
36454;BME280;22478;51.740;-1.314;2023-05-07T03:59:46;100187.00;;;9.17;100.00
36454;BME280;22478;51.740;-1.314;2023-05-07T04:02:14;100187.70;;;8.69;100.00
36454;BME280;22478;51.740;-1.314;2023-05-07T04:04:41;100187.75;;;10.31;100.00
36454;BME280;22478;51.740;-1.314;2023-05-07T04:07:09;100187.93;;;9.55;100.00
36454;BME280;22478;51.740;-1.314;2023-05-07T04:09:36;100189.81;;;8.41;100.00
36454;BME280;22478;51.740;-1.314;2023-05-07T04:12:04;100185.22;;;9.59;100.00
36454;BME280;22478;51.740;-1.314;2023-05-07T04:14:31;100184.66;;;10.80;100.00
36454;BME280;22478;51.740;-1.314;2023-05-07T04:16:59;100192.39;;;9.49;100.00
36454;BME280;22478;51.740;-1.314;2023-05-07T04:19:26;100194.49;;;9.91;100.00
36454;BME280;22478;51.740;-1.314;2023-05-07T04:21:53;100190.74;;;9.86;100.00
36454;BME280;22478;51.740;-1.314;2023-05-07T04:24:21;100192.54;;;9.67;100.00
36454;BME280;22478;51.740;-1.314;2023-05-07T04:26:48;100196.34;;;9.54;100.00
36454;BME280;22478;51.740;-1.314;2023-05-07T04:29:15;100199.54;;;11.13;100.00
36454;BME280;22478;51.740;-1.314;2023-05-07T04:31:43;100202.18;;;10.52;100.00
36454;BME280;22478;51.740;-1.314;2023-05-07T04:34:10;100201.20;;;11.43;100.00
36454;BME280;22478;51.740;-1.314;2023-05-07T04:36:38;100199.02;;;10.94;100.00
36454;BME280;22478;51.740;-1.314;2023-05-07T04:39:05;100197.89;;;10.79;100.00
36454;BME280;22478;51.740;-1.314;2023-05-07T04:41:32;100200.59;;;10.95;100.00
36454;BME280;22478;51.740;-1.314;2023-05-07T04:44:00;100197.24;;;10.84;100.00
36454;BME280;22478;51.740;-1.314;2023-05-07T04:46:27;100196.30;;;11.98;100.00
36454;BME280;22478;51.740;-1.314;2023-05-07T04:48:54;100203.11;;;9.17;100.00
36454;BME280;22478;51.740;-1.314;2023-05-07T04:51:22;100205.07;;;9.42;100.00
36454;BME280;22478;51.740;-1.314;2023-05-07T04:53:49;100204.86;;;11.54;100.00
36454;BME280;22478;51.740;-1.314;2023-05-07T04:56:16;100209.48;;;10.58;100.00
36454;BME280;22478;51.740;-1.314;2023-05-07T04:58:43;100211.51;;;11.13;100.00
36454;BME280;22478;51.740;-1.314;2023-05-07T05:01:10;100212.07;;;11.68;100.00
36454;BME280;22478;51.740;-1.314;2023-05-07T05:03:37;100209.46;;;11.88;100.00
36454;BME280;22478;51.740;-1.314;2023-05-07T05:06:05;100210.45;;;11.34;100.00
36454;BME280;22478;51.740;-1.314;2023-05-07T05:08:32;100209.79;;;10.83;100.00
36454;BME280;22478;51.740;-1.314;2023-05-07T05:11:00;100217.44;;;12.09;100.00
36454;BME280;22478;51.740;-1.314;2023-05-07T05:13:28;100227.04;;;10.54;100.00
36454;BME280;22478;51.740;-1.314;2023-05-07T05:15:55;100229.77;;;11.39;100.00
36454;BME280;22478;51.740;-1.314;2023-05-07T05:18:23;100235.65;;;9.26;100.00
36454;BME280;22478;51.740;-1.314;2023-05-07T05:20:51;100240.91;;;10.86;100.00
36454;BME280;22478;51.740;-1.314;2023-05-07T05:23:18;100245.16;;;11.84;100.00
36454;BME280;22478;51.740;-1.314;2023-05-07T05:25:46;100246.80;;;11.43;100.00
36454;BME280;22478;51.740;-1.314;2023-05-07T05:28:14;100252.57;;;12.57;100.00
36454;BME280;22478;51.740;-1.314;2023-05-07T05:30:41;100254.41;;;11.45;100.00
36454;BME280;22478;51.740;-1.314;2023-05-07T05:33:08;100259.64;;;11.90;100.00
36454;BME280;22478;51.740;-1.314;2023-05-07T05:35:35;100261.29;;;10.94;100.00
36454;BME280;22478;51.740;-1.314;2023-05-07T05:38:02;100265.26;;;11.73;100.00
36454;BME280;22478;51.740;-1.314;2023-05-07T05:40:29;100264.00;;;10.68;100.00
36454;BME280;22478;51.740;-1.314;2023-05-07T05:42:57;100265.79;;;11.45;100.00
36454;BME280;22478;51.740;-1.314;2023-05-07T05:45:24;100265.58;;;10.59;100.00
36454;BME280;22478;51.740;-1.314;2023-05-07T05:47:51;100266.84;;;11.07;100.00
36454;BME280;22478;51.740;-1.314;2023-05-07T05:50:19;100269.31;;;11.64;100.00
36454;BME280;22478;51.740;-1.314;2023-05-07T05:52:46;100273.58;;;12.11;100.00
36454;BME280;22478;51.740;-1.314;2023-05-07T05:55:13;100271.34;;;12.75;100.00
36454;BME280;22478;51.740;-1.314;2023-05-07T05:57:41;100271.38;;;12.01;100.00
36454;BME280;22478;51.740;-1.314;2023-05-07T06:00:09;100272.60;;;12.51;100.00
36454;BME280;22478;51.740;-1.314;2023-05-07T06:02:37;100275.09;;;11.62;100.00
36454;BME280;22478;51.740;-1.314;2023-05-07T06:05:05;100279.90;;;11.92;100.00
36454;BME280;22478;51.740;-1.314;2023-05-07T06:07:32;100282.16;;;11.53;100.00
36454;BME280;22478;51.740;-1.314;2023-05-07T06:09:59;100281.49;;;10.85;100.00
36454;BME280;22478;51.740;-1.314;2023-05-07T06:12:26;100281.28;;;12.07;100.00
36454;BME280;22478;51.740;-1.314;2023-05-07T06:14:54;100274.35;;;12.55;100.00
36454;BME280;22478;51.740;-1.314;2023-05-07T06:17:22;100278.67;;;13.36;100.00
36454;BME280;22478;51.740;-1.314;2023-05-07T06:19:49;100287.34;;;13.29;100.00
36454;BME280;22478;51.740;-1.314;2023-05-07T06:22:16;100294.94;;;12.70;100.00
36454;BME280;22478;51.740;-1.314;2023-05-07T06:24:44;100293.81;;;12.84;100.00
36454;BME280;22478;51.740;-1.314;2023-05-07T06:27:11;100293.39;;;11.88;100.00
36454;BME280;22478;51.740;-1.314;2023-05-07T06:29:39;100290.67;;;13.23;100.00
36454;BME280;22478;51.740;-1.314;2023-05-07T06:32:07;100289.01;;;12.42;100.00
36454;BME280;22478;51.740;-1.314;2023-05-07T06:34:34;100284.88;;;12.76;100.00
36454;BME280;22478;51.740;-1.314;2023-05-07T06:37:02;100288.68;;;12.41;100.00
36454;BME280;22478;51.740;-1.314;2023-05-07T06:39:30;100284.26;;;14.02;100.00
36454;BME280;22478;51.740;-1.314;2023-05-07T06:41:57;100291.73;;;12.78;100.00
36454;BME280;22478;51.740;-1.314;2023-05-07T06:44:25;100294.71;;;12.41;100.00
36454;BME280;22478;51.740;-1.314;2023-05-07T06:46:52;100294.76;;;13.78;100.00
36454;BME280;22478;51.740;-1.314;2023-05-07T06:49:20;100293.41;;;13.88;100.00
36454;BME280;22478;51.740;-1.314;2023-05-07T06:51:46;100304.23;;;12.66;100.00
36454;BME280;22478;51.740;-1.314;2023-05-07T06:54:14;100309.69;;;13.58;100.00
36454;BME280;22478;51.740;-1.314;2023-05-07T06:56:42;100316.84;;;11.94;100.00
36454;BME280;22478;51.740;-1.314;2023-05-07T06:59:09;100315.53;;;12.86;100.00
36454;BME280;22478;51.740;-1.314;2023-05-07T07:01:36;100310.07;;;13.29;100.00
36454;BME280;22478;51.740;-1.314;2023-05-07T07:04:04;100316.26;;;13.61;100.00
36454;BME280;22478;51.740;-1.314;2023-05-07T07:06:31;100321.10;;;12.53;100.00
36454;BME280;22478;51.740;-1.314;2023-05-07T07:08:59;100317.27;;;13.49;100.00
36454;BME280;22478;51.740;-1.314;2023-05-07T07:11:26;100320.83;;;13.14;100.00
36454;BME280;22478;51.740;-1.314;2023-05-07T07:13:53;100326.33;;;12.46;100.00
36454;BME280;22478;51.740;-1.314;2023-05-07T07:16:21;100331.78;;;12.83;100.00
36454;BME280;22478;51.740;-1.314;2023-05-07T07:18:48;100335.72;;;11.35;100.00
36454;BME280;22478;51.740;-1.314;2023-05-07T07:21:15;100338.31;;;12.78;100.00
36454;BME280;22478;51.740;-1.314;2023-05-07T07:23:42;100337.37;;;12.86;100.00
36454;BME280;22478;51.740;-1.314;2023-05-07T07:26:10;100341.78;;;10.96;100.00
36454;BME280;22478;51.740;-1.314;2023-05-07T07:28:42;100339.63;;;10.63;100.00
36454;BME280;22478;51.740;-1.314;2023-05-07T07:31:10;100338.29;;;12.52;100.00
36454;BME280;22478;51.740;-1.314;2023-05-07T07:33:37;100339.72;;;12.68;100.00
36454;BME280;22478;51.740;-1.314;2023-05-07T07:36:05;100340.60;;;11.18;100.00
36454;BME280;22478;51.740;-1.314;2023-05-07T07:38:33;100339.02;;;12.10;100.00
36454;BME280;22478;51.740;-1.314;2023-05-07T07:41:00;100337.35;;;12.04;100.00
36454;BME280;22478;51.740;-1.314;2023-05-07T07:43:28;100340.61;;;13.05;100.00
36454;BME280;22478;51.740;-1.314;2023-05-07T07:45:55;100344.85;;;13.17;100.00
36454;BME280;22478;51.740;-1.314;2023-05-07T07:48:22;100346.24;;;12.79;100.00
36454;BME280;22478;51.740;-1.314;2023-05-07T07:50:50;100348.02;;;12.63;100.00
36454;BME280;22478;51.740;-1.314;2023-05-07T07:53:18;100339.41;;;13.80;100.00
36454;BME280;22478;51.740;-1.314;2023-05-07T07:55:45;100348.50;;;13.08;100.00
36454;BME280;22478;51.740;-1.314;2023-05-07T07:58:12;100354.07;;;12.66;100.00
36454;BME280;22478;51.740;-1.314;2023-05-07T08:00:40;100355.48;;;13.17;100.00
36454;BME280;22478;51.740;-1.314;2023-05-07T08:03:09;100362.88;;;11.64;100.00
36454;BME280;22478;51.740;-1.314;2023-05-07T08:05:37;100369.33;;;9.39;100.00
36454;BME280;22478;51.740;-1.314;2023-05-07T08:08:04;100372.64;;;9.53;100.00
36454;BME280;22478;51.740;-1.314;2023-05-07T08:10:32;100370.68;;;11.67;100.00
36454;BME280;22478;51.740;-1.314;2023-05-07T08:12:59;100374.92;;;11.21;100.00
36454;BME280;22478;51.740;-1.314;2023-05-07T08:15:26;100382.52;;;10.37;100.00
36454;BME280;22478;51.740;-1.314;2023-05-07T08:17:53;100385.62;;;10.17;100.00
36454;BME280;22478;51.740;-1.314;2023-05-07T08:20:21;100387.79;;;9.38;100.00
36454;BME280;22478;51.740;-1.314;2023-05-07T08:22:48;100383.89;;;10.93;100.00
36454;BME280;22478;51.740;-1.314;2023-05-07T08:25:15;100384.84;;;11.51;100.00
36454;BME280;22478;51.740;-1.314;2023-05-07T08:27:42;100383.29;;;12.34;100.00
36454;BME280;22478;51.740;-1.314;2023-05-07T08:30:10;100393.81;;;9.89;100.00
36454;BME280;22478;51.740;-1.314;2023-05-07T08:32:37;100396.47;;;11.05;100.00
36454;BME280;22478;51.740;-1.314;2023-05-07T08:35:05;100400.31;;;11.28;100.00
36454;BME280;22478;51.740;-1.314;2023-05-07T08:37:32;100397.27;;;11.93;100.00
36454;BME280;22478;51.740;-1.314;2023-05-07T08:39:59;100397.89;;;12.02;100.00
36454;BME280;22478;51.740;-1.314;2023-05-07T08:42:28;100397.06;;;12.71;100.00
36454;BME280;22478;51.740;-1.314;2023-05-07T08:44:57;100398.04;;;12.66;100.00
36454;BME280;22478;51.740;-1.314;2023-05-07T08:47:34;100396.92;;;12.74;100.00
36454;BME280;22478;51.740;-1.314;2023-05-07T08:50:02;100399.40;;;13.64;100.00
36454;BME280;22478;51.740;-1.314;2023-05-07T08:52:29;100405.01;;;12.08;100.00
36454;BME280;22478;51.740;-1.314;2023-05-07T08:54:56;100404.45;;;12.93;100.00
36454;BME280;22478;51.740;-1.314;2023-05-07T08:57:24;100397.83;;;12.09;100.00
36454;BME280;22478;51.740;-1.314;2023-05-07T08:59:51;100398.29;;;11.66;100.00
36454;BME280;22478;51.740;-1.314;2023-05-07T09:02:19;100399.48;;;10.62;100.00
36454;BME280;22478;51.740;-1.314;2023-05-07T09:04:46;100400.59;;;11.21;100.00
36454;BME280;22478;51.740;-1.314;2023-05-07T09:07:13;100403.91;;;10.52;100.00
36454;BME280;22478;51.740;-1.314;2023-05-07T09:09:41;100415.62;;;9.24;100.00
36454;BME280;22478;51.740;-1.314;2023-05-07T09:12:11;100410.70;;;12.40;100.00
36454;BME280;22478;51.740;-1.314;2023-05-07T09:14:38;100413.22;;;12.82;100.00
36454;BME280;22478;51.740;-1.314;2023-05-07T09:17:06;100421.71;;;10.29;100.00
36454;BME280;22478;51.740;-1.314;2023-05-07T09:19:33;100426.32;;;10.37;100.00
36454;BME280;22478;51.740;-1.314;2023-05-07T09:22:01;100421.82;;;12.45;100.00
36454;BME280;22478;51.740;-1.314;2023-05-07T09:24:30;100418.38;;;14.03;100.00
36454;BME280;22478;51.740;-1.314;2023-05-07T09:26:58;100416.03;;;13.77;100.00
36454;BME280;22478;51.740;-1.314;2023-05-07T09:29:25;100419.17;;;13.99;100.00
36454;BME280;22478;51.740;-1.314;2023-05-07T09:31:52;100415.32;;;14.24;100.00
36454;BME280;22478;51.740;-1.314;2023-05-07T09:34:19;100422.69;;;11.88;100.00
36454;BME280;22478;51.740;-1.314;2023-05-07T09:36:47;100424.31;;;12.85;100.00
36454;BME280;22478;51.740;-1.314;2023-05-07T09:39:14;100413.09;;;15.16;100.00
36454;BME280;22478;51.740;-1.314;2023-05-07T09:41:46;100410.41;;;14.88;100.00
36454;BME280;22478;51.740;-1.314;2023-05-07T09:44:14;100418.01;;;13.83;100.00
36454;BME280;22478;51.740;-1.314;2023-05-07T09:46:43;100425.29;;;13.60;100.00
36454;BME280;22478;51.740;-1.314;2023-05-07T09:49:21;100437.54;;;11.48;100.00
36454;BME280;22478;51.740;-1.314;2023-05-07T09:51:50;100438.28;;;11.84;100.00
36454;BME280;22478;51.740;-1.314;2023-05-07T09:54:18;100439.71;;;13.67;100.00
36454;BME280;22478;51.740;-1.314;2023-05-07T09:56:45;100447.96;;;12.06;100.00
36454;BME280;22478;51.740;-1.314;2023-05-07T09:59:15;100446.72;;;12.26;100.00
36454;BME280;22478;51.740;-1.314;2023-05-07T10:01:44;100449.91;;;9.23;100.00
36454;BME280;22478;51.740;-1.314;2023-05-07T10:04:12;100452.08;;;10.39;100.00
36454;BME280;22478;51.740;-1.314;2023-05-07T10:06:41;100450.77;;;10.60;100.00
36454;BME280;22478;51.740;-1.314;2023-05-07T10:09:09;100447.89;;;10.42;100.00
36454;BME280;22478;51.740;-1.314;2023-05-07T10:11:37;100447.63;;;12.19;100.00
36454;BME280;22478;51.740;-1.314;2023-05-07T10:14:05;100444.45;;;15.08;100.00
36454;BME280;22478;51.740;-1.314;2023-05-07T10:16:33;100446.52;;;15.29;100.00
36454;BME280;22478;51.740;-1.314;2023-05-07T10:19:02;100450.90;;;14.75;100.00
36454;BME280;22478;51.740;-1.314;2023-05-07T10:21:31;100451.83;;;17.75;100.00
36454;BME280;22478;51.740;-1.314;2023-05-07T10:24:03;100459.76;;;15.45;100.00
36454;BME280;22478;51.740;-1.314;2023-05-07T10:26:31;100466.67;;;13.85;100.00
36454;BME280;22478;51.740;-1.314;2023-05-07T10:29:02;100462.45;;;15.23;100.00
36454;BME280;22478;51.740;-1.314;2023-05-07T10:31:43;100469.10;;;15.25;100.00
36454;BME280;22478;51.740;-1.314;2023-05-07T10:34:18;100470.26;;;15.99;100.00
36454;BME280;22478;51.740;-1.314;2023-05-07T10:36:48;100478.30;;;13.16;100.00
36454;BME280;22478;51.740;-1.314;2023-05-07T10:39:16;100466.01;;;17.11;100.00
36454;BME280;22478;51.740;-1.314;2023-05-07T10:41:43;100468.86;;;18.19;94.25
36454;BME280;22478;51.740;-1.314;2023-05-07T10:44:11;100468.85;;;17.89;88.81
36454;BME280;22478;51.740;-1.314;2023-05-07T10:46:38;100460.71;;;20.68;79.40
36454;BME280;22478;51.740;-1.314;2023-05-07T10:49:08;100455.45;;;19.41;83.93
36454;BME280;22478;51.740;-1.314;2023-05-07T10:51:36;100456.75;;;19.53;71.92
36454;BME280;22478;51.740;-1.314;2023-05-07T10:54:20;100452.62;;;23.58;64.27
36454;BME280;22478;51.740;-1.314;2023-05-07T10:56:48;100464.02;;;18.36;76.35
36454;BME280;22478;51.740;-1.314;2023-05-07T10:59:48;100466.30;;;21.69;66.24
36454;BME280;22478;51.740;-1.314;2023-05-07T11:02:15;100466.01;;;20.51;62.38
36454;BME280;22478;51.740;-1.314;2023-05-07T11:04:43;100466.65;;;20.04;58.82
36454;BME280;22478;51.740;-1.314;2023-05-07T11:07:28;100472.59;;;19.84;62.96
36454;BME280;22478;51.740;-1.314;2023-05-07T11:09:56;100466.68;;;19.19;68.66
36454;BME280;22478;51.740;-1.314;2023-05-07T11:12:48;100463.76;;;19.94;64.50
36454;BME280;22478;51.740;-1.314;2023-05-07T11:15:36;100475.02;;;16.35;69.17
36454;BME280;22478;51.740;-1.314;2023-05-07T11:18:04;100468.11;;;18.66;59.66
36454;BME280;22478;51.740;-1.314;2023-05-07T11:21:03;100465.62;;;22.73;56.99
36454;BME280;22478;51.740;-1.314;2023-05-07T11:24:04;100474.23;;;19.97;59.09
36454;BME280;22478;51.740;-1.314;2023-05-07T11:26:42;100476.67;;;20.36;54.28
36454;BME280;22478;51.740;-1.314;2023-05-07T11:29:12;100479.27;;;21.71;59.42
36454;BME280;22478;51.740;-1.314;2023-05-07T11:31:39;100479.91;;;20.62;62.59
36454;BME280;22478;51.740;-1.314;2023-05-07T11:34:07;100487.84;;;14.74;75.28
36454;BME280;22478;51.740;-1.314;2023-05-07T11:36:34;100491.12;;;16.73;69.71
36454;BME280;22478;51.740;-1.314;2023-05-07T11:39:03;100481.29;;;19.71;65.28
36454;BME280;22478;51.740;-1.314;2023-05-07T11:41:34;100485.28;;;19.54;61.36
36454;BME280;22478;51.740;-1.314;2023-05-07T11:44:01;100486.04;;;19.79;64.58
36454;BME280;22478;51.740;-1.314;2023-05-07T11:46:29;100498.82;;;18.18;72.80
36454;BME280;22478;51.740;-1.314;2023-05-07T11:48:57;100496.79;;;16.48;83.39
36454;BME280;22478;51.740;-1.314;2023-05-07T11:51:25;100499.71;;;17.21;84.94
36454;BME280;22478;51.740;-1.314;2023-05-07T11:53:53;100495.06;;;19.68;69.40
36454;BME280;22478;51.740;-1.314;2023-05-07T11:56:21;100492.57;;;22.41;62.97
36454;BME280;22478;51.740;-1.314;2023-05-07T11:58:49;100489.56;;;20.05;63.37
36454;BME280;22478;51.740;-1.314;2023-05-07T12:01:16;100484.69;;;23.47;55.62
36454;BME280;22478;51.740;-1.314;2023-05-07T12:03:44;100482.62;;;20.73;55.20
36454;BME280;22478;51.740;-1.314;2023-05-07T12:06:13;100476.19;;;25.14;48.49
36454;BME280;22478;51.740;-1.314;2023-05-07T12:08:41;100478.24;;;23.15;48.82
36454;BME280;22478;51.740;-1.314;2023-05-07T12:11:10;100473.18;;;26.44;47.82
36454;BME280;22478;51.740;-1.314;2023-05-07T12:13:39;100481.51;;;19.83;57.58
36454;BME280;22478;51.740;-1.314;2023-05-07T12:16:07;100482.99;;;21.44;53.70
36454;BME280;22478;51.740;-1.314;2023-05-07T12:18:35;100490.03;;;18.58;62.43
36454;BME280;22478;51.740;-1.314;2023-05-07T12:21:05;100498.09;;;16.78;72.60
36454;BME280;22478;51.740;-1.314;2023-05-07T12:23:33;100493.33;;;18.68;63.29
36454;BME280;22478;51.740;-1.314;2023-05-07T12:26:00;100489.14;;;20.70;61.06
36454;BME280;22478;51.740;-1.314;2023-05-07T12:28:28;100491.42;;;16.89;65.15
36454;BME280;22478;51.740;-1.314;2023-05-07T12:30:55;100486.49;;;22.57;59.04
36454;BME280;22478;51.740;-1.314;2023-05-07T12:33:25;100484.64;;;23.95;57.43
36454;BME280;22478;51.740;-1.314;2023-05-07T12:35:54;100489.40;;;18.98;59.52
36454;BME280;22478;51.740;-1.314;2023-05-07T12:38:22;100487.20;;;20.76;56.79